Date,TemperatureHighF,TemperatureAvgF,TemperatureLowF,DewpointHighF,DewpointAvgF,DewpointLowF,HumidityHigh,HumidityAvg,HumidityLow,PressureMaxIn,PressureMinIn,WindSpeedMaxMPH,WindSpeedAvgMPH,GustSpeedMaxMPH,PrecipitationSumIn
2013-1-1,53,38,27,32,27,-100,94,69,29,30.30,30.13,12,2,12,0.00
2013-1-2,60,44,31,32,26,21,88,56,24,30.17,29.99,25,4,25,0.01
2013-1-3,59,45,31,30,29,26,88,57,31,30.18,30.02,24,6,24,0.00
2013-1-4,57,47,33,29,27,25,82,48,31,30.26,30.16,28,6,28,0.00
2013-1-5,62,43,28,31,26,14,90,57,16,30.36,30.23,9,1,9,0.00
2013-1-6,65,47,32,27,23,14,72,44,14,30.23,29.94,11,2,11,0.00
2013-1-7,58,43,30,31,28,25,85,58,32,29.96,29.82,12,2,12,0.00
2013-1-8,59,43,30,31,29,26,88,61,31,30.14,29.92,8,1,8,0.00
2013-1-9,70,50,31,31,21,11,83,42,10,30.24,30.03,23,4,23,0.00
2013-1-10,68,52,36,35,24,20,61,36,18,30.06,29.80,21,3,21,0.00
2013-1-11,53,39,28,36,25,12,93,61,27,30.06,29.84,25,4,25,0.04
2013-1-12,46,32,21,19,14,2,85,51,18,30.19,30.03,19,2,19,0.00
2013-1-13,48,30,19,16,5,-100,77,43,13,30.21,30.06,13,2,13,0.00
2013-1-14,44,30,18,17,9,-100,77,46,21,30.31,30.11,18,2,18,0.00
2013-1-15,45,30,15,12,6,-2,73,40,14,30.47,30.31,9,1,9,0.00
2013-1-16,61,41,22,15,9,5,55,31,12,30.47,30.24,19,3,19,0.00
2013-1-17,67,56,36,18,15,11,42,22,13,30.25,30.11,29,8,29,0.00
2013-1-18,74,56,37,23,19,14,49,26,11,30.18,30.04,20,3,20,0.00
2013-1-19,76,52,31,28,23,18,63,36,13,30.24,30.09,10,1,10,0.00
2013-1-20,77,54,36,40,29,25,65,40,19,30.16,29.98,9,1,9,0.00
2013-1-21,80,57,39,36,32,29,69,43,20,30.09,29.95,14,2,14,0.00
2013-1-22,80,58,39,36,31,27,72,42,15,30.15,30.03,11,1,11,0.00
2013-1-23,81,59,41,34,31,28,62,37,18,30.18,30.05,9,1,9,0.00
2013-1-24,65,58,51,54,44,32,82,61,37,30.19,30.09,8,1,8,0.03
2013-1-25,77,62,48,51,47,44,89,61,33,30.15,29.92,8,1,8,0.00
2013-1-26,68,60,53,59,53,48,95,78,52,29.95,29.84,31,2,31,0.75
2013-1-27,66,58,50,52,50,47,96,75,52,30.00,29.89,11,-87,11,0.00
2013-1-28,56,51,44,49,41,28,90,68,49,29.99,29.88,30,6,30,0.11
2013-1-29,51,43,35,35,28,19,81,57,30,30.23,29.99,25,6,25,0.00
2013-1-30,58,42,29,30,26,18,89,57,23,30.40,30.23,12,2,12,0.00
2013-1-31,63,45,31,37,30,25,84,60,28,30.31,30.12,11,2,11,0.00
2013-2-1,73,50,31,37,30,21,88,55,16,30.24,30.13,10,2,10,0.00
2013-2-2,76,54,34,40,32,21,85,51,13,30.25,30.09,11,2,11,0.00
2013-2-3,70,58,48,40,36,28,71,48,23,30.13,29.92,7,1,7,0.00
2013-2-4,70,55,44,41,40,38,82,59,32,30.02,29.90,10,1,10,0.00
2013-2-5,74,56,40,44,40,34,90,60,24,30.01,29.87,12,2,12,0.00
2013-2-6,71,55,43,44,39,36,87,59,30,30.01,29.87,20,2,20,0.00
2013-2-7,71,54,38,40,36,29,88,55,24,30.09,29.94,11,2,11,0.00
2013-2-8,68,55,40,35,28,16,76,41,15,29.94,29.76,23,4,23,0.00
2013-2-9,52,44,36,37,30,23,90,59,33,30.06,29.77,25,4,25,0.03
2013-2-10,56,42,27,28,24,17,88,55,22,30.09,29.96,12,2,12,0.00
2013-2-11,51,38,29,36,30,22,94,75,41,30.21,30.00,24,-50,24,0.24
2013-2-12,52,40,30,36,32,28,96,76,44,30.33,30.21,12,-5,12,0.00
2013-2-13,60,43,28,32,28,22,91,61,24,30.26,30.11,11,2,11,0.00
2013-2-14,66,47,30,33,29,23,90,56,21,30.18,30.04,13,2,13,0.00
2013-2-15,73,54,38,33,26,14,78,42,11,30.24,30.13,22,4,22,0.00
2013-2-16,74,63,47,20,12,3,35,14,7,30.24,29.95,34,7,34,0.00
2013-2-17,74,56,37,23,16,4,52,24,7,29.94,29.80,20,4,20,0.00
2013-2-18,71,52,36,27,21,8,63,35,10,30.04,29.90,10,1,10,0.00
2013-2-19,72,56,39,32,20,11,56,29,10,29.93,29.68,23,4,23,0.00
2013-2-20,52,41,32,38,33,30,95,75,45,29.98,29.66,25,4,25,0.17
2013-2-21,53,42,32,37,34,31,96,74,48,30.12,29.98,13,2,13,0.34
2013-2-22,56,45,34,39,34,28,94,68,39,30.17,30.02,22,3,22,0.00
2013-2-23,65,46,30,35,28,18,91,57,18,30.17,29.85,13,2,13,0.00
2013-2-24,51,43,34,34,22,6,85,49,16,30.12,29.81,32,6,32,0.00
2013-2-25,58,42,27,27,20,16,74,45,21,30.26,30.07,13,2,13,0.00
2013-2-26,65,46,28,27,22,14,83,46,17,30.09,29.96,19,3,19,0.00
2013-2-27,64,47,29,25,16,6,73,36,11,30.22,30.09,16,3,16,0.00
2013-2-28,68,48,30,22,17,8,64,33,10,30.34,30.21,18,-39,18,0.00
2013-3-1,74,53,33,28,20,12,60,33,11,30.34,30.18,10,-5,10,0.00
2013-3-2,84,60,37,31,26,5,69,34,6,30.30,30.06,10,2,10,0.00
2013-3-3,80,63,42,32,25,12,62,30,9,30.08,29.86,18,3,18,0.00
2013-3-4,72,63,48,33,29,18,54,29,16,30.01,29.81,27,5,27,0.00
2013-3-5,80,61,43,34,30,22,65,37,13,30.08,29.92,16,2,16,0.00
2013-3-6,82,65,49,38,32,22,60,33,14,29.97,29.80,17,2,17,0.00
2013-3-7,80,63,45,33,27,15,57,31,9,29.91,29.80,23,3,23,0.00
2013-3-8,69,58,44,49,38,28,71,49,29,29.93,29.68,35,7,35,0.06
2013-3-9,53,47,43,39,36,33,80,66,53,30.09,29.93,18,4,18,0.01
2013-3-10,67,52,38,39,34,26,87,55,25,30.16,30.04,15,2,15,0.00
2013-3-11,73,55,36,34,31,27,75,45,20,30.17,29.98,13,2,13,0.00
2013-3-12,82,60,37,36,31,25,75,41,13,30.07,29.94,11,2,11,0.00
2013-3-13,89,67,43,37,29,18,69,32,8,30.09,29.93,18,3,18,0.00
2013-3-14,92,71,47,32,22,6,51,22,4,30.05,29.89,19,3,19,0.00
2013-3-15,94,71,49,30,24,0,45,21,3,29.96,29.80,25,3,25,0.00
2013-3-16,89,70,48,31,22,4,45,20,5,29.85,29.62,24,4,24,0.00
2013-3-17,83,66,49,27,23,16,37,21,8,29.85,29.71,28,5,28,0.00
2013-3-18,82,66,50,36,27,15,46,26,9,29.94,29.83,19,3,19,0.00
2013-3-19,80,65,49,38,30,25,51,29,15,29.98,29.86,21,3,21,0.00
2013-3-20,83,66,48,35,30,25,52,29,13,29.99,29.80,16,-164,16,0.00
2013-3-21,77,65,51,37,33,28,50,31,19,29.80,29.65,17,2,17,0.00
2013-3-22,81,68,52,35,32,27,48,28,16,29.73,29.58,24,4,24,0.00
2013-3-23,75,62,47,34,22,-1,56,26,6,29.93,29.73,28,5,28,0.00
2013-3-24,77,59,39,16,8,-8,35,16,4,29.98,29.82,22,4,22,0.00
2013-3-25,81,62,41,20,16,10,37,19,8,29.97,29.83,17,3,17,0.00
2013-3-26,86,66,47,24,13,-100,39,17,5,29.93,29.75,18,3,18,0.00
2013-3-27,86,69,49,27,20,14,37,17,8,29.93,29.80,18,-315,18,0.00
2013-3-28,84,69,49,35,24,17,36,19,9,29.97,29.86,16,3,16,0.00
2013-3-29,86,70,51,37,24,14,36,19,8,30.01,29.89,19,2,19,0.00
2013-3-30,83,69,54,32,24,14,33,20,8,29.98,29.83,18,2,18,0.00
2013-3-31,86,68,48,33,28,24,49,26,12,29.98,29.82,17,2,17,0.00
2013-4-1,82,67,49,37,30,23,48,26,16,29.95,29.79,19,3,19,0.00
2013-4-2,79,64,46,29,24,17,45,24,11,29.91,29.79,24,4,24,0.00
2013-4-3,82,65,45,31,27,22,48,26,13,29.99,29.87,16,2,16,0.00
2013-4-4,89,70,48,33,24,10,50,23,6,30.02,29.83,15,2,15,0.00
2013-4-5,88,72,54,33,29,23,38,21,12,29.90,29.74,24,4,24,0.00
2013-4-6,86,71,52,37,31,24,47,25,12,29.89,29.72,18,3,18,0.00
2013-4-7,87,39,64,36,-34,-100,32,9,11,29.80,29.61,20,3,20,0.00
2013-4-8,83,69,47,42,35,26,83,31,13,29.65,29.32,38,8,38,0.05
2013-4-9,65,54,46,46,36,24,93,55,23,29.87,29.49,24,5,24,0.09
2013-4-10,68,56,40,34,30,24,75,40,20,29.97,29.87,21,4,21,0.00
2013-4-11,80,62,41,34,30,22,71,35,14,29.97,29.72,18,-53,18,0.00
2013-4-12,83,66,48,33,28,20,47,26,11,29.76,29.66,18,2,18,0.00
2013-4-13,86,69,47,32,27,20,53,24,10,29.81,29.64,19,4,19,0.00
2013-4-14,86,71,54,38,32,24,45,26,11,29.73,29.58,20,5,20,0.00
2013-4-15,87,74,62,40,33,24,37,24,11,29.71,29.58,26,6,26,0.00
2013-4-16,86,73,60,41,33,26,39,24,12,29.73,29.59,26,7,26,0.00
2013-4-17,68,61,52,42,27,10,53,30,14,29.95,29.67,26,7,26,0.00
2013-4-18,73,56,37,18,13,7,42,20,9,30.10,29.95,19,2,19,0.00
2013-4-19,82,62,38,16,5,-9,35,14,3,30.13,29.89,23,3,23,0.00
2013-4-20,85,65,41,22,13,4,32,15,6,29.94,29.81,22,3,22,0.00
2013-4-21,90,70,47,26,19,8,38,18,5,29.99,29.83,16,3,16,0.00
2013-4-22,92,73,51,30,19,5,34,16,4,29.90,29.68,22,3,22,0.00
2013-4-23,89,72,51,29,22,16,34,17,7,29.80,29.68,21,3,21,0.00
2013-4-24,91,75,53,35,26,16,38,18,7,29.84,29.71,18,3,18,0.00
2013-4-25,86,73,58,33,27,10,33,20,7,29.93,29.75,28,5,28,0.00
2013-4-26,88,69,46,35,28,24,50,25,11,30.04,29.92,16,3,18,0.00
2013-4-27,92,73,50,33,26,13,44,20,6,30.00,29.79,15,3,15,0.00
2013-4-28,95,76,52,33,20,9,38,15,5,29.83,29.64,19,3,19,0.00
2013-4-29,98,78,53,30,17,3,33,13,3,29.74,29.55,20,-32,20,0.00
2013-4-30,97,79,56,33,20,11,30,13,5,29.70,29.56,24,4,24,0.00
2013-5-1,91,76,56,32,22,9,33,15,5,29.88,29.70,18,3,18,0.00
2013-5-2,91,75,53,33,21,8,36,15,5,30.00,29.88,33,6,38,0.00
2013-5-3,88,74,62,23,18,11,21,13,6,29.96,29.70,36,8,36,0.00
2013-5-4,93,76,54,31,22,12,33,15,6,29.75,29.59,20,3,20,0.00
2013-5-5,91,77,58,41,30,20,37,19,8,29.83,29.65,25,4,25,0.00
2013-5-6,85,71,57,54,43,33,86,41,17,29.89,29.78,15,4,19,0.03
2013-5-7,85,70,55,45,37,23,51,33,12,29.92,29.76,24,5,24,0.00
2013-5-8,81,67,51,43,38,29,63,37,17,29.95,29.83,15,2,15,0.00
2013-5-9,84,70,53,45,35,15,61,32,9,29.92,29.79,17,2,17,0.00
2013-5-10,88,71,53,42,36,30,53,30,14,29.97,29.82,22,3,22,0.00
2013-5-11,88,76,59,41,37,29,44,26,13,29.99,29.89,28,6,28,0.00
2013-5-12,92,78,67,42,35,28,34,22,11,30.03,29.82,24,5,24,0.00
2013-5-13,96,80,60,35,29,18,33,17,8,29.96,29.78,24,4,24,0.00
2013-5-14,98,83,66,47,34,21,47,19,9,29.85,29.68,21,3,21,0.00
2013-5-15,98,83,64,41,35,30,36,20,10,29.87,29.68,24,4,24,0.00
2013-5-16,98,82,64,42,29,19,33,16,6,29.80,29.62,20,3,20,0.00
2013-5-17,95,80,58,42,29,16,40,18,6,29.79,29.65,22,4,22,0.00
2013-5-18,92,77,60,41,30,21,37,20,9,29.82,29.70,22,4,22,0.00
2013-5-19,91,77,60,47,38,25,52,28,10,29.81,29.65,22,3,22,0.00
2013-5-20,92,78,57,44,31,21,49,22,9,29.79,29.67,26,5,26,0.00
2013-5-21,96,77,54,31,21,7,33,14,4,29.81,29.65,15,2,15,0.00
2013-5-22,100,80,57,35,25,16,32,15,6,29.73,29.55,20,3,20,0.00
2013-5-23,99,82,62,42,30,14,35,17,5,29.73,29.61,19,4,19,0.00
2013-5-24,99,82,61,45,30,9,42,19,4,29.80,29.69,17,3,17,0.00
2013-5-25,98,81,59,42,27,8,43,18,4,29.82,29.70,19,4,19,0.00
2013-5-26,97,79,58,34,19,0,34,14,3,29.85,29.73,18,3,18,0.00
2013-5-27,98,78,56,28,17,-6,27,13,2,29.80,29.60,17,3,17,0.00
2013-5-28,94,79,56,36,26,14,33,16,6,29.67,29.49,21,4,21,0.00
2013-5-29,94,80,61,51,37,31,39,23,12,29.66,29.53,20,4,20,0.00
2013-5-30,97,83,65,55,45,35,60,30,12,29.72,29.60,19,4,19,0.00
2013-5-31,99,84,67,59,48,34,62,32,11,29.74,29.62,18,3,18,0.00
2013-6-1,106,87,62,45,37,20,44,21,5,29.71,29.55,13,2,13,0.00
2013-6-2,106,90,68,47,39,28,38,19,7,29.66,29.50,23,4,23,0.00
2013-6-3,103,88,65,43,31,16,37,16,5,29.70,29.58,34,3,34,0.00
2013-6-4,103,87,69,47,36,28,32,18,8,29.72,29.60,21,4,21,0.00
2013-6-5,102,84,63,42,28,12,37,16,4,29.75,29.61,18,3,18,0.00
2013-6-6,104,86,61,35,30,25,31,15,8,29.71,29.56,16,3,16,0.00
2013-6-7,108,89,65,39,30,25,31,14,6,29.67,29.48,17,2,17,0.00
2013-6-8,104,90,67,41,28,18,26,13,5,29.69,29.58,23,5,23,0.00
2013-6-9,104,88,69,45,30,11,34,16,4,29.75,29.61,21,4,21,0.00
2013-6-10,107,89,65,44,30,19,32,15,5,29.77,29.61,20,3,20,0.00
2013-6-11,109,91,68,41,28,10,27,13,3,29.74,29.60,21,4,21,0.00
2013-6-12,108,91,68,38,33,28,29,14,7,29.79,29.61,22,3,22,0.00
2013-6-13,104,90,73,51,44,33,37,22,11,29.77,29.59,23,4,23,0.00
2013-6-14,104,89,74,58,51,44,47,28,16,29.72,29.55,18,3,18,0.00
2013-6-15,102,86,74,71,56,44,69,38,22,29.75,29.61,29,2,29,0.46
2013-6-16,104,87,68,65,51,33,85,38,12,29.80,29.65,17,2,20,0.00
2013-6-17,104,87,65,53,37,27,53,20,8,29.80,29.63,17,2,17,0.00
2013-6-18,107,86,63,44,18,-100,44,15,1,29.73,29.58,18,2,18,0.00
2013-6-19,106,86,63,35,25,6,29,13,3,29.67,29.54,22,4,22,0.00
2013-6-20,105,87,66,42,24,-1,35,14,3,29.69,29.58,20,3,20,0.00
2013-6-21,105,88,65,47,30,8,39,15,3,29.74,29.59,34,4,34,0.00
2013-6-22,105,87,65,41,28,14,32,15,4,29.75,29.58,16,4,21,0.00
2013-6-23,104,86,62,42,29,11,36,16,5,29.71,29.54,21,4,21,0.00
2013-6-24,103,87,66,44,32,14,35,16,5,29.73,29.60,24,5,24,0.00
2013-6-25,102,86,67,46,29,12,42,17,4,29.81,29.68,18,2,18,0.00
2013-6-26,104,86,65,38,26,13,29,14,4,29.90,29.75,19,3,19,0.00
2013-6-27,108,89,67,48,36,25,31,16,9,29.92,29.71,24,3,25,0.00
2013-6-28,110,92,69,44,38,34,32,17,8,29.80,29.62,13,2,13,0.00
2013-6-29,111,97,79,49,43,37,25,17,10,29.71,29.55,30,3,30,0.00
2013-6-30,110,94,77,68,52,46,74,26,13,29.78,29.47,27,4,27,0.02
2013-7-1,108,91,76,66,59,53,58,36,18,29.73,29.58,20,3,20,0.00
2013-7-2,102,89,72,66,58,50,75,38,23,29.87,29.65,39,5,39,0.03
2013-7-3,105,92,77,56,53,48,48,28,18,29.75,29.50,22,4,22,0.00
2013-7-4,104,93,80,61,55,50,49,30,18,29.69,29.50,18,4,21,0.00
2013-7-5,100,85,74,70,63,55,82,50,29,29.72,29.54,28,2,28,0.02
2013-7-6,105,88,70,65,61,54,74,44,20,29.71,29.53,14,2,14,0.00
2013-7-7,110,88,74,73,62,54,81,45,19,29.67,29.51,33,3,33,0.61
2013-7-8,105,92,78,65,61,56,64,36,22,29.74,29.63,28,3,28,0.00
2013-7-9,100,89,77,74,66,61,83,50,32,29.87,29.67,23,4,23,0.06
2013-7-10,99,82,73,73,68,64,89,65,36,29.85,29.70,16,2,16,0.05
2013-7-11,96,82,72,74,69,65,93,66,38,29.85,29.72,19,2,19,0.06
2013-7-12,86,79,71,72,67,63,91,68,52,29.86,29.74,21,2,21,0.22
2013-7-13,100,87,75,69,65,61,80,52,31,29.83,29.67,7,2,18,0.00
2013-7-14,102,91,78,65,63,60,65,42,28,29.77,29.60,9,3,22,0.00
2013-7-15,104,90,76,66,63,58,68,44,24,29.70,29.54,9,3,20,0.00
2013-7-16,87,80,76,69,66,63,71,61,49,29.90,29.69,10,5,28,0.00
2013-7-17,98,87,76,68,60,55,75,44,26,29.90,29.75,10,5,27,0.00
2013-7-18,96,86,80,63,58,55,54,39,28,29.82,29.68,13,8,26,0.00
2013-7-19,97,85,76,70,62,60,82,47,31,29.80,29.64,17,4,23,0.02
2013-7-20,97,79,73,71,68,61,90,72,32,29.76,29.61,24,2,24,0.09
2013-7-21,94,83,72,71,67,63,94,63,38,29.80,29.70,19,3,19,0.00
2013-7-22,96,71,72,69,36,-100,86,43,35,29.84,29.71,23,3,23,0.00
2013-7-23,98,87,73,65,62,59,71,47,30,29.86,29.68,23,3,23,0.00
2013-7-24,95,84,77,72,65,61,85,55,38,29.78,29.68,18,2,18,0.03
2013-7-25,94,82,76,72,69,64,86,66,44,29.87,29.77,16,1,16,0.00
2013-7-26,99,54,73,74,9,-100,90,44,35,29.96,29.85,27,2,27,0.15
2013-7-27,96,83,72,71,67,62,89,63,34,29.90,29.72,17,2,17,0.00
2013-7-28,102,88,71,68,59,47,82,44,21,29.76,29.62,17,3,17,0.00
2013-7-29,102,87,70,55,50,47,53,30,18,29.85,29.72,14,2,14,0.00
2013-7-30,106,90,72,58,54,52,54,32,18,29.95,29.78,21,3,21,0.00
2013-7-31,106,90,78,62,58,53,51,36,19,29.88,29.75,17,3,17,0.00
2013-8-1,95,87,78,63,61,58,58,42,34,29.82,29.73,19,3,19,0.00
2013-8-2,96,84,75,68,64,60,64,51,36,29.82,29.74,13,1,13,0.00
2013-8-3,103,88,71,64,60,55,73,43,22,29.86,29.71,17,3,17,0.00
2013-8-4,96,87,76,67,60,55,66,41,26,29.86,29.73,10,1,10,0.00
2013-8-5,96,82,70,70,60,55,92,52,27,29.91,29.72,19,4,19,0.32
2013-8-6,89,76,70,70,66,61,94,73,46,29.90,29.83,16,2,16,0.01
2013-8-7,96,81,67,67,61,50,94,56,22,29.93,29.78,18,3,20,0.00
2013-8-8,101,84,67,59,51,38,74,37,14,29.84,29.69,16,2,16,0.00
2013-8-9,104,86,64,50,46,40,56,29,14,29.80,29.68,16,2,16,0.00
2013-8-10,103,88,71,50,44,37,41,23,13,29.86,29.70,8,2,14,0.00
2013-8-11,102,87,73,66,56,39,54,36,24,29.82,29.65,30,4,30,0.00
2013-8-12,103,89,69,63,54,35,65,35,14,29.77,29.65,18,3,18,0.00
2013-8-13,105,88,69,50,42,37,41,22,11,29.84,29.67,18,3,18,0.00
2013-8-14,108,90,74,63,53,42,52,31,16,29.81,29.64,24,3,24,0.00
2013-8-15,106,91,75,62,57,50,60,35,17,29.82,29.67,16,2,16,0.00
2013-8-16,108,80,75,73,40,-100,77,34,14,29.81,29.65,19,2,19,0.24
2013-8-17,106,85,72,70,64,54,78,55,19,29.81,29.70,11,1,11,0.00
2013-8-18,106,90,78,62,56,50,55,35,16,29.82,29.70,12,2,17,0.00
2013-8-19,106,91,79,60,56,48,52,33,17,29.81,29.66,16,2,16,0.00
2013-8-20,104,87,80,71,61,54,74,43,21,29.84,29.67,29,2,29,0.02
2013-8-21,99,85,74,65,60,56,67,46,27,29.83,29.70,15,2,15,0.00
2013-8-22,103,84,73,64,59,55,63,46,22,29.83,29.63,31,2,31,0.00
2013-8-23,102,84,69,63,60,53,71,47,23,29.81,29.60,16,3,16,0.00
2013-8-24,94,81,71,69,62,58,92,57,32,29.87,29.71,20,3,20,0.16
2013-8-25,95,78,72,73,70,64,95,79,39,29.87,29.77,17,2,17,0.07
2013-8-26,100,80,72,74,70,60,97,76,28,29.86,29.69,40,2,40,0.15
2013-8-27,101,85,67,71,61,51,96,53,21,29.77,29.64,17,3,17,0.01
2013-8-28,98,86,76,68,62,59,73,46,29,29.83,29.65,21,4,21,0.00
2013-8-29,88,79,71,72,68,66,93,72,53,29.96,29.82,13,1,13,0.02
2013-8-30,88,80,72,72,69,65,95,73,47,29.95,29.82,8,1,8,0.01
2013-8-31,99,83,70,69,66,62,87,59,33,29.88,29.70,17,2,17,0.00
2013-9-1,100,86,69,68,64,57,87,52,30,29.80,29.64,18,2,18,0.00
2013-9-2,98,84,74,67,63,56,71,51,27,29.84,29.65,15,2,15,0.00
2013-9-3,102,82,72,68,63,57,74,55,27,29.83,29.70,18,2,25,0.00
2013-9-4,102,86,68,65,57,49,81,43,19,29.84,29.71,19,3,19,0.00
2013-9-5,103,90,72,58,52,48,53,29,18,29.80,29.69,19,3,19,0.00
2013-9-6,103,85,71,67,59,53,83,43,21,29.84,29.66,22,2,27,0.01
2013-9-7,87,78,72,69,65,60,87,65,43,29.85,29.74,14,2,14,0.00
2013-9-8,86,76,71,71,67,61,91,73,49,29.79,29.67,13,2,13,0.00
2013-9-9,84,75,69,72,68,64,95,80,55,29.75,29.64,22,1,22,0.00
2013-9-10,87,74,64,68,63,58,96,72,42,29.84,29.72,17,2,22,0.00
2013-9-11,92,77,64,65,60,54,94,61,30,29.89,29.76,12,1,12,0.00
2013-9-12,96,81,64,63,60,54,87,53,29,29.80,29.62,23,3,23,0.00
2013-9-13,98,85,70,66,61,50,78,47,22,29.69,29.50,16,3,16,0.00
2013-9-14,99,85,71,65,59,51,76,45,21,29.61,29.50,16,2,16,0.00
2013-9-15,100,88,73,60,58,52,62,38,21,29.66,29.57,18,4,23,0.00
2013-9-16,100,90,83,63,60,56,45,37,24,29.70,29.57,25,6,25,0.00
2013-9-17,101,90,82,62,59,53,48,36,23,29.67,29.51,20,4,20,0.00
2013-9-18,100,86,70,61,51,42,61,33,15,29.65,29.51,9,2,12,0.00
2013-9-19,100,84,65,56,50,44,60,33,18,29.67,29.54,12,2,12,0.00
2013-9-20,100,83,66,58,52,43,59,35,21,29.73,29.60,17,2,17,0.00
2013-9-21,100,84,69,61,56,51,64,41,21,29.74,29.55,19,2,19,0.00
2013-9-22,95,82,70,66,55,41,65,42,24,29.64,29.49,28,5,28,0.00
2013-9-23,91,74,56,46,42,39,60,34,18,29.83,29.64,11,2,11,0.00
2013-9-24,65,65,65,40,40,39,40,40,39,29.83,29.83,3,2,3,0.00
2013-10-3,68,68,68,41,41,41,37,37,37,29.80,29.80,0,0,2,0.00
2013-10-4,68,68,68,41,41,41,37,37,37,29.80,29.80,0,0,2,0.00
2013-10-5,68,68,68,41,41,41,37,37,37,29.80,29.80,0,0,2,0.00
2013-10-6,68,68,68,41,41,41,37,37,37,29.80,29.80,0,0,2,0.00
2013-10-7,68,68,68,41,41,41,37,37,37,29.80,29.80,0,0,2,0.00
2013-10-8,68,68,68,41,41,41,37,37,37,29.80,29.80,0,0,2,0.00
2013-10-9,79,69,50,50,42,41,39,36,1,29.80,29.61,12,1,18,0.00
2013-10-10,71,64,54,51,46,41,64,51,37,29.88,29.64,20,5,20,0.00
2013-10-11,77,61,45,46,41,36,82,51,25,29.96,29.85,16,2,16,0.00
2013-10-12,86,66,46,42,37,34,70,40,17,29.94,29.79,12,1,12,0.00
2013-10-13,88,71,52,48,41,36,61,36,17,29.92,29.78,21,4,21,0.00
2013-10-14,82,67,51,48,40,34,69,40,21,29.95,29.83,11,2,13,0.00
2013-10-15,83,66,49,48,35,28,61,35,17,29.91,29.77,16,2,16,0.00
2013-10-16,79,61,44,33,23,9,57,28,7,30.02,29.91,11,1,11,0.00
2013-10-17,80,60,40,26,22,16,49,26,10,30.05,29.87,12,1,12,0.00
2013-10-18,59,47,41,27,24,22,52,41,30,29.99,29.92,5,1,5,0.00
2013-10-19,86,63,44,28,22,14,46,25,8,30.04,29.88,6,2,15,0.00
2013-10-20,84,62,42,27,20,14,43,23,8,29.96,29.80,18,2,18,0.00
2013-10-21,85,63,43,29,21,16,43,22,8,29.97,29.87,13,-23,13,0.00
2013-10-22,90,70,45,30,22,16,42,19,7,30.01,29.85,25,4,25,0.00
2013-10-23,91,77,59,38,29,25,32,18,10,29.85,29.71,16,3,16,0.00
2013-10-24,91,70,51,36,30,26,45,25,12,29.92,29.76,20,2,20,0.00
2013-10-25,86,67,49,36,30,26,48,28,12,30.00,29.90,14,2,14,0.00
2013-10-26,87,67,45,35,30,24,55,28,11,30.08,29.93,11,2,11,0.00
2013-10-27,89,71,56,40,30,24,45,25,11,29.95,29.69,14,2,14,0.00
2013-10-28,82,67,51,38,34,27,53,31,15,29.86,29.75,24,3,24,0.00
2013-10-29,83,70,54,41,36,31,56,31,16,29.87,29.72,25,4,25,0.00
2013-10-30,70,56,46,44,35,27,72,48,24,30.03,29.83,21,3,21,0.00
2013-10-31,74,55,36,33,27,19,67,37,13,30.14,29.99,12,2,12,0.00
2013-11-1,79,57,37,28,26,23,59,33,14,30.17,29.99,10,1,10,0.00
2013-11-2,87,71,47,53,22,14,80,19,7,30.05,29.79,25,4,25,0.05
2013-11-3,80,65,53,56,49,42,91,60,28,29.89,29.67,16,2,16,0.06
2013-11-4,80,65,48,53,46,43,81,54,28,29.79,29.64,20,3,20,0.00
2013-11-5,71,60,48,47,43,37,77,57,31,30.08,29.77,13,2,13,0.00
2013-11-6,76,60,39,41,26,2,86,39,7,30.24,30.08,22,4,22,0.00
2013-11-7,81,71,63,30,19,-4,24,14,6,30.15,29.96,22,7,27,0.00
2013-11-8,82,64,48,38,34,29,55,34,19,30.03,29.87,14,1,14,0.00
2013-11-9,82,63,45,41,36,33,65,40,21,30.07,29.95,7,1,11,0.00
2013-11-10,86,65,47,40,37,34,65,39,18,30.10,29.92,11,1,11,0.00
2013-11-11,88,68,47,44,38,34,64,37,18,30.03,29.90,16,2,16,0.00
2013-11-12,85,74,59,46,40,30,45,29,20,30.08,29.97,36,10,36,0.00
2013-11-13,78,69,64,45,44,42,47,40,31,30.06,29.90,35,9,35,0.00
2013-11-14,81,64,48,47,41,34,77,46,23,29.97,29.80,12,1,12,0.00
2013-11-15,76,65,52,52,46,36,63,51,37,29.81,29.59,21,3,21,0.00
2013-11-16,75,66,58,52,46,34,69,51,23,29.83,29.64,19,5,19,0.00
2013-11-17,74,64,51,50,46,43,81,55,36,29.99,29.83,12,2,12,0.00
2013-11-18,79,63,48,49,44,41,82,54,27,30.04,29.90,13,2,13,0.00
2013-11-19,78,60,45,46,40,31,81,52,18,29.97,29.80,9,1,12,0.00
2013-11-20,75,62,48,44,40,37,71,49,27,29.88,29.76,17,3,17,0.00
2013-11-21,73,63,52,53,44,39,78,51,31,29.89,29.79,8,1,11,0.00
2013-11-22,66,57,48,56,51,47,94,82,56,29.93,29.74,12,2,12,0.45
2013-11-23,52,49,47,48,46,43,96,89,73,30.07,29.90,17,4,17,1.10
2013-11-24,60,51,45,45,42,38,89,71,49,30.14,30.05,15,3,15,0.00
2013-11-25,59,47,37,44,40,34,94,77,51,30.24,30.11,13,1,13,0.00
2013-11-26,65,56,41,40,33,25,93,46,28,30.27,30.13,31,8,31,0.00
2013-11-27,62,57,53,26,25,22,35,29,24,30.14,29.97,32,9,32,0.00
2013-11-28,72,56,38,40,33,26,78,46,25,30.08,29.95,16,-12,16,0.00
2013-11-29,74,56,40,46,41,37,89,63,29,30.17,30.02,10,1,10,0.00
2013-11-30,71,56,44,49,45,42,91,71,42,30.15,30.02,5,0,5,0.00
2013-12-1,72,56,47,48,46,43,90,72,36,30.19,30.07,9,1,9,0.00
2013-12-2,70,53,40,46,40,34,95,67,28,30.13,29.91,7,1,7,0.00
2013-12-3,74,57,42,44,37,17,85,53,13,29.92,29.70,12,2,12,0.00
2013-12-4,69,59,46,48,43,34,92,57,30,29.86,29.70,22,5,22,0.07
2013-12-5,50,44,35,45,38,30,94,80,54,30.11,29.82,13,2,13,0.30
2013-12-6,53,40,28,34,28,24,94,67,33,30.22,30.08,10,1,10,0.01
2013-12-7,58,43,28,36,27,16,93,59,21,30.13,30.00,16,2,16,0.01
2013-12-8,56,48,40,41,37,29,79,67,51,30.13,29.99,8,2,10,0.00
2013-12-9,51,42,31,37,27,21,81,59,32,30.32,30.07,11,1,11,0.00
2013-12-10,62,44,29,29,24,18,83,51,19,30.31,30.10,18,2,18,0.00
2013-12-11,73,55,34,42,34,27,82,50,31,30.21,30.09,19,3,19,0.00
2013-12-12,73,60,44,45,37,31,70,43,32,30.12,29.94,19,3,19,0.00
2013-12-13,61,48,35,37,34,31,88,62,35,30.18,30.04,8,-186,8,0.00
2013-12-14,66,49,33,36,29,22,90,53,20,30.31,30.18,15,2,15,0.00
2013-12-15,68,54,39,33,28,24,61,39,21,30.28,30.12,18,3,18,0.00
2013-12-16,76,54,37,34,30,27,72,45,17,30.22,30.11,9,1,9,0.00
2013-12-17,81,58,38,34,29,21,74,40,12,30.21,30.04,15,-116,15,0.00
2013-12-18,79,60,46,35,30,21,54,36,12,30.05,29.81,6,1,6,0.00
2013-12-19,70,58,47,34,29,22,56,34,17,29.82,29.65,19,3,19,0.00
2013-12-20,54,48,43,44,39,29,93,75,40,29.83,29.57,19,3,19,0.42
2013-12-21,52,47,41,44,40,36,96,79,55,30.07,29.83,22,3,22,0.16
2013-12-22,58,46,36,44,38,34,96,76,49,30.29,30.05,9,1,9,0.00
2013-12-23,65,50,34,39,30,21,94,55,20,30.36,30.23,21,4,21,0.01
2013-12-24,68,51,36,38,30,26,79,49,21,30.22,30.08,11,2,11,0.00
2013-12-25,68,52,33,38,30,22,90,51,24,30.26,30.12,28,5,28,0.00
2013-12-26,65,56,44,26,24,16,45,28,20,30.18,30.04,32,7,32,0.00
2013-12-27,66,57,40,25,20,13,54,26,16,30.18,30.07,30,7,30,0.00
2013-12-28,64,52,36,34,26,14,62,39,20,30.09,29.91,9,1,11,0.00
2013-12-29,66,50,36,35,31,28,79,52,25,30.15,29.94,14,1,14,0.00
2013-12-30,66,48,32,35,30,27,88,55,23,30.27,30.14,10,1,10,0.00
2013-12-31,72,50,33,30,27,21,78,48,16,30.25,30.07,7,1,7,0.00
2014-1-1,70,50,34,33,29,26,80,50,20,30.17,30.04,9,1,9,0.00
2014-1-2,74,58,38,32,28,24,75,37,16,30.16,30.01,22,4,22,0.00